sensor_id;sensor_type;location;lat;lon;timestamp;P1;durP1;ratioP1;P2;durP2;ratioP2
15451;SDS011;7827;53.594;9.938;2022-08-11T00:00:06;6.35;;;4.00;;
15451;SDS011;7827;53.594;9.938;2022-08-11T00:02:39;6.40;;;3.80;;
15451;SDS011;7827;53.594;9.938;2022-08-11T00:05:12;5.10;;;3.90;;
15451;SDS011;7827;53.594;9.938;2022-08-11T00:07:42;4.82;;;3.25;;
15451;SDS011;7827;53.594;9.938;2022-08-11T00:10:14;7.50;;;3.45;;
15451;SDS011;7827;53.594;9.938;2022-08-11T00:12:50;9.13;;;3.53;;
15451;SDS011;7827;53.594;9.938;2022-08-11T00:15:23;7.07;;;3.80;;
15451;SDS011;7827;53.594;9.938;2022-08-11T00:17:55;5.13;;;3.50;;
15451;SDS011;7827;53.594;9.938;2022-08-11T00:20:27;4.10;;;3.70;;
15451;SDS011;7827;53.594;9.938;2022-08-11T00:23:00;7.72;;;3.80;;
15451;SDS011;7827;53.594;9.938;2022-08-11T00:25:36;8.07;;;4.13;;
15451;SDS011;7827;53.594;9.938;2022-08-11T00:28:21;5.55;;;4.00;;
15451;SDS011;7827;53.594;9.938;2022-08-11T00:30:54;7.82;;;3.72;;
15451;SDS011;7827;53.594;9.938;2022-08-11T00:33:31;5.05;;;3.60;;
15451;SDS011;7827;53.594;9.938;2022-08-11T00:36:10;7.60;;;4.13;;
15451;SDS011;7827;53.594;9.938;2022-08-11T00:38:50;5.20;;;4.00;;
15451;SDS011;7827;53.594;9.938;2022-08-11T00:41:27;5.88;;;3.85;;
15451;SDS011;7827;53.594;9.938;2022-08-11T00:44:06;5.00;;;3.95;;
15451;SDS011;7827;53.594;9.938;2022-08-11T00:46:56;5.40;;;3.85;;
15451;SDS011;7827;53.594;9.938;2022-08-11T00:49:51;8.90;;;3.67;;
15451;SDS011;7827;53.594;9.938;2022-08-11T00:56:17;4.93;;;3.63;;
15451;SDS011;7827;53.594;9.938;2022-08-11T00:59:47;6.03;;;4.35;;
15451;SDS011;7827;53.594;9.938;2022-08-11T01:02:43;4.60;;;3.83;;
15451;SDS011;7827;53.594;9.938;2022-08-11T01:05:39;5.97;;;4.00;;
15451;SDS011;7827;53.594;9.938;2022-08-11T01:08:29;12.35;;;4.28;;
15451;SDS011;7827;53.594;9.938;2022-08-11T01:11:40;4.55;;;3.58;;
15451;SDS011;7827;53.594;9.938;2022-08-11T01:27:25;7.57;;;3.78;;
15451;SDS011;7827;53.594;9.938;2022-08-11T01:30:16;5.85;;;4.00;;
15451;SDS011;7827;53.594;9.938;2022-08-11T01:33:23;6.95;;;3.85;;
15451;SDS011;7827;53.594;9.938;2022-08-11T01:36:29;5.20;;;4.10;;
15451;SDS011;7827;53.594;9.938;2022-08-11T01:42:32;4.32;;;3.88;;
15451;SDS011;7827;53.594;9.938;2022-08-11T01:45:44;6.72;;;3.63;;
15451;SDS011;7827;53.594;9.938;2022-08-11T01:48:27;4.80;;;3.70;;
15451;SDS011;7827;53.594;9.938;2022-08-11T01:51:30;4.55;;;4.05;;
15451;SDS011;7827;53.594;9.938;2022-08-11T01:54:16;7.70;;;4.25;;
15451;SDS011;7827;53.594;9.938;2022-08-11T01:56:53;7.15;;;4.20;;
15451;SDS011;7827;53.594;9.938;2022-08-11T01:59:38;8.45;;;4.10;;
15451;SDS011;7827;53.594;9.938;2022-08-11T02:02:21;5.00;;;3.70;;
15451;SDS011;7827;53.594;9.938;2022-08-11T02:05:13;6.78;;;4.13;;
15451;SDS011;7827;53.594;9.938;2022-08-11T02:07:53;4.68;;;4.22;;
15451;SDS011;7827;53.594;9.938;2022-08-11T02:10:29;18.83;;;4.50;;
15451;SDS011;7827;53.594;9.938;2022-08-11T02:13:23;4.38;;;3.90;;
15451;SDS011;7827;53.594;9.938;2022-08-11T02:16:09;6.63;;;4.20;;
15451;SDS011;7827;53.594;9.938;2022-08-11T02:18:47;7.15;;;3.75;;
15451;SDS011;7827;53.594;9.938;2022-08-11T02:21:40;6.43;;;4.03;;
15451;SDS011;7827;53.594;9.938;2022-08-11T02:24:34;6.75;;;4.20;;
15451;SDS011;7827;53.594;9.938;2022-08-11T02:27:13;7.32;;;3.90;;
15451;SDS011;7827;53.594;9.938;2022-08-11T02:29:49;4.35;;;3.60;;
15451;SDS011;7827;53.594;9.938;2022-08-11T02:32:30;6.30;;;4.22;;
15451;SDS011;7827;53.594;9.938;2022-08-11T02:35:22;4.38;;;3.90;;
15451;SDS011;7827;53.594;9.938;2022-08-11T02:38:00;7.57;;;3.78;;
15451;SDS011;7827;53.594;9.938;2022-08-11T02:40:42;6.10;;;3.88;;
15451;SDS011;7827;53.594;9.938;2022-08-11T02:43:21;5.72;;;4.00;;
15451;SDS011;7827;53.594;9.938;2022-08-11T02:45:59;5.32;;;3.92;;
15451;SDS011;7827;53.594;9.938;2022-08-11T02:48:49;6.45;;;3.83;;
15451;SDS011;7827;53.594;9.938;2022-08-11T02:51:41;4.60;;;3.63;;
15451;SDS011;7827;53.594;9.938;2022-08-11T02:54:31;9.98;;;4.18;;
15451;SDS011;7827;53.594;9.938;2022-08-11T02:57:08;5.35;;;3.90;;
15451;SDS011;7827;53.594;9.938;2022-08-11T02:59:46;8.07;;;4.18;;
15451;SDS011;7827;53.594;9.938;2022-08-11T03:02:23;7.25;;;4.22;;
15451;SDS011;7827;53.594;9.938;2022-08-11T03:05:00;5.40;;;4.53;;
15451;SDS011;7827;53.594;9.938;2022-08-11T03:07:35;5.10;;;4.10;;
15451;SDS011;7827;53.594;9.938;2022-08-11T03:10:17;9.40;;;4.20;;
15451;SDS011;7827;53.594;9.938;2022-08-11T03:12:50;4.95;;;4.13;;
15451;SDS011;7827;53.594;9.938;2022-08-11T03:15:57;4.28;;;3.80;;
15451;SDS011;7827;53.594;9.938;2022-08-11T03:18:55;8.02;;;4.25;;
15451;SDS011;7827;53.594;9.938;2022-08-11T03:21:35;4.60;;;4.03;;
15451;SDS011;7827;53.594;9.938;2022-08-11T03:24:30;4.70;;;4.20;;
15451;SDS011;7827;53.594;9.938;2022-08-11T03:27:09;6.43;;;4.38;;
15451;SDS011;7827;53.594;9.938;2022-08-11T03:29:57;6.40;;;4.43;;
15451;SDS011;7827;53.594;9.938;2022-08-11T03:32:33;5.70;;;4.43;;
15451;SDS011;7827;53.594;9.938;2022-08-11T03:35:33;5.90;;;4.28;;
15451;SDS011;7827;53.594;9.938;2022-08-11T03:38:03;5.65;;;4.00;;
15451;SDS011;7827;53.594;9.938;2022-08-11T03:40:43;6.72;;;4.60;;
15451;SDS011;7827;53.594;9.938;2022-08-11T03:44:04;7.25;;;4.30;;
15451;SDS011;7827;53.594;9.938;2022-08-11T03:46:50;5.78;;;4.50;;
15451;SDS011;7827;53.594;9.938;2022-08-11T03:49:30;5.75;;;4.32;;
15451;SDS011;7827;53.594;9.938;2022-08-11T03:52:12;6.05;;;4.03;;
15451;SDS011;7827;53.594;9.938;2022-08-11T03:54:54;7.25;;;4.20;;
15451;SDS011;7827;53.594;9.938;2022-08-11T03:57:39;8.40;;;4.60;;
15451;SDS011;7827;53.594;9.938;2022-08-11T04:00:37;8.73;;;3.85;;
15451;SDS011;7827;53.594;9.938;2022-08-11T04:03:26;6.32;;;4.15;;
15451;SDS011;7827;53.594;9.938;2022-08-11T04:06:38;6.75;;;4.63;;
15451;SDS011;7827;53.594;9.938;2022-08-11T04:10:06;7.50;;;4.50;;
15451;SDS011;7827;53.594;9.938;2022-08-11T04:13:08;6.78;;;4.15;;
15451;SDS011;7827;53.594;9.938;2022-08-11T04:16:14;7.55;;;4.22;;
15451;SDS011;7827;53.594;9.938;2022-08-11T04:25:23;6.20;;;4.22;;
15451;SDS011;7827;53.594;9.938;2022-08-11T04:28:24;7.32;;;4.30;;
15451;SDS011;7827;53.594;9.938;2022-08-11T04:34:33;4.72;;;4.13;;
15451;SDS011;7827;53.594;9.938;2022-08-11T04:37:09;6.80;;;4.30;;
15451;SDS011;7827;53.594;9.938;2022-08-11T04:40:17;6.68;;;4.38;;
15451;SDS011;7827;53.594;9.938;2022-08-11T04:43:14;6.25;;;4.10;;
15451;SDS011;7827;53.594;9.938;2022-08-11T04:46:48;8.13;;;4.00;;
15451;SDS011;7827;53.594;9.938;2022-08-11T04:49:30;7.00;;;4.03;;
15451;SDS011;7827;53.594;9.938;2022-08-11T04:52:47;4.15;;;3.70;;
15451;SDS011;7827;53.594;9.938;2022-08-11T04:59:19;13.70;;;4.20;;
15451;SDS011;7827;53.594;9.938;2022-08-11T05:06:19;7.75;;;3.65;;
15451;SDS011;7827;53.594;9.938;2022-08-11T05:09:06;10.55;;;3.92;;
15451;SDS011;7827;53.594;9.938;2022-08-11T05:11:57;10.68;;;4.18;;
15451;SDS011;7827;53.594;9.938;2022-08-11T05:14:47;14.25;;;4.07;;
15451;SDS011;7827;53.594;9.938;2022-08-11T05:17:36;11.63;;;4.13;;
15451;SDS011;7827;53.594;9.938;2022-08-11T05:20:42;9.05;;;4.35;;
15451;SDS011;7827;53.594;9.938;2022-08-11T05:23:32;5.60;;;4.10;;
15451;SDS011;7827;53.594;9.938;2022-08-11T05:26:23;14.32;;;5.18;;
15451;SDS011;7827;53.594;9.938;2022-08-11T05:29:34;8.00;;;3.90;;
15451;SDS011;7827;53.594;9.938;2022-08-11T05:32:24;4.70;;;4.03;;
15451;SDS011;7827;53.594;9.938;2022-08-11T05:35:29;8.32;;;4.18;;
15451;SDS011;7827;53.594;9.938;2022-08-11T05:38:20;8.15;;;5.05;;
15451;SDS011;7827;53.594;9.938;2022-08-11T05:41:08;7.90;;;4.20;;
15451;SDS011;7827;53.594;9.938;2022-08-11T05:43:56;8.63;;;4.50;;
15451;SDS011;7827;53.594;9.938;2022-08-11T05:46:48;6.30;;;4.43;;
15451;SDS011;7827;53.594;9.938;2022-08-11T05:49:35;8.23;;;4.35;;
15451;SDS011;7827;53.594;9.938;2022-08-11T05:52:25;7.07;;;4.75;;
15451;SDS011;7827;53.594;9.938;2022-08-11T05:55:14;7.38;;;4.22;;
15451;SDS011;7827;53.594;9.938;2022-08-11T05:58:19;5.97;;;4.45;;
15451;SDS011;7827;53.594;9.938;2022-08-11T06:00:47;10.02;;;4.32;;
15451;SDS011;7827;53.594;9.938;2022-08-11T06:03:21;7.32;;;4.88;;
15451;SDS011;7827;53.594;9.938;2022-08-11T06:05:53;8.50;;;4.68;;
15451;SDS011;7827;53.594;9.938;2022-08-11T06:08:27;6.63;;;3.83;;
15451;SDS011;7827;53.594;9.938;2022-08-11T06:11:01;4.93;;;3.92;;
15451;SDS011;7827;53.594;9.938;2022-08-11T06:13:31;6.63;;;4.20;;
15451;SDS011;7827;53.594;9.938;2022-08-11T06:16:01;4.35;;;3.90;;
15451;SDS011;7827;53.594;9.938;2022-08-11T06:18:34;11.00;;;4.43;;
15451;SDS011;7827;53.594;9.938;2022-08-11T06:21:07;8.98;;;4.28;;
15451;SDS011;7827;53.594;9.938;2022-08-11T06:23:37;5.35;;;4.00;;
15451;SDS011;7827;53.594;9.938;2022-08-11T06:26:08;6.25;;;3.47;;
15451;SDS011;7827;53.594;9.938;2022-08-11T06:28:38;6.82;;;4.07;;
15451;SDS011;7827;53.594;9.938;2022-08-11T06:31:11;9.05;;;3.97;;
15451;SDS011;7827;53.594;9.938;2022-08-11T06:33:46;6.57;;;3.83;;
15451;SDS011;7827;53.594;9.938;2022-08-11T06:36:22;7.00;;;4.38;;
15451;SDS011;7827;53.594;9.938;2022-08-11T06:38:59;7.65;;;4.18;;
15451;SDS011;7827;53.594;9.938;2022-08-11T06:41:37;5.35;;;4.03;;
15451;SDS011;7827;53.594;9.938;2022-08-11T06:44:15;11.02;;;3.72;;
15451;SDS011;7827;53.594;9.938;2022-08-11T06:46:50;8.52;;;3.67;;
15451;SDS011;7827;53.594;9.938;2022-08-11T06:49:27;7.05;;;3.53;;
15451;SDS011;7827;53.594;9.938;2022-08-11T06:52:18;10.73;;;3.88;;
15451;SDS011;7827;53.594;9.938;2022-08-11T06:55:04;8.75;;;3.60;;
15451;SDS011;7827;53.594;9.938;2022-08-11T06:57:55;6.55;;;3.53;;
15451;SDS011;7827;53.594;9.938;2022-08-11T07:00:40;5.85;;;3.90;;
15451;SDS011;7827;53.594;9.938;2022-08-11T07:03:10;9.50;;;3.80;;
15451;SDS011;7827;53.594;9.938;2022-08-11T07:05:46;6.35;;;3.83;;
15451;SDS011;7827;53.594;9.938;2022-08-11T07:08:25;11.52;;;3.78;;
15451;SDS011;7827;53.594;9.938;2022-08-11T07:14:49;6.30;;;3.47;;
15451;SDS011;7827;53.594;9.938;2022-08-11T07:17:38;6.90;;;3.83;;
15451;SDS011;7827;53.594;9.938;2022-08-11T07:20:15;6.78;;;3.67;;
15451;SDS011;7827;53.594;9.938;2022-08-11T07:23:04;7.63;;;3.95;;
15451;SDS011;7827;53.594;9.938;2022-08-11T07:25:53;5.68;;;3.45;;
15451;SDS011;7827;53.594;9.938;2022-08-11T07:28:43;6.55;;;3.78;;
15451;SDS011;7827;53.594;9.938;2022-08-11T07:31:25;10.15;;;3.50;;
15451;SDS011;7827;53.594;9.938;2022-08-11T07:34:02;3.83;;;3.30;;
15451;SDS011;7827;53.594;9.938;2022-08-11T07:36:45;5.90;;;3.20;;
15451;SDS011;7827;53.594;9.938;2022-08-11T07:42:12;8.32;;;3.45;;
15451;SDS011;7827;53.594;9.938;2022-08-11T07:44:46;6.85;;;3.35;;
15451;SDS011;7827;53.594;9.938;2022-08-11T07:47:34;6.72;;;3.45;;
15451;SDS011;7827;53.594;9.938;2022-08-11T07:50:21;7.25;;;3.00;;
15451;SDS011;7827;53.594;9.938;2022-08-11T07:53:07;7.00;;;3.47;;
15451;SDS011;7827;53.594;9.938;2022-08-11T07:55:38;11.35;;;3.95;;
15451;SDS011;7827;53.594;9.938;2022-08-11T07:58:17;6.70;;;3.28;;
15451;SDS011;7827;53.594;9.938;2022-08-11T08:01:18;6.72;;;3.40;;
15451;SDS011;7827;53.594;9.938;2022-08-11T08:04:05;5.20;;;3.35;;
15451;SDS011;7827;53.594;9.938;2022-08-11T08:06:53;5.90;;;3.28;;
15451;SDS011;7827;53.594;9.938;2022-08-11T08:09:39;6.32;;;3.50;;
15451;SDS011;7827;53.594;9.938;2022-08-11T08:12:29;6.60;;;3.20;;
15451;SDS011;7827;53.594;9.938;2022-08-11T08:15:15;12.68;;;3.15;;
15451;SDS011;7827;53.594;9.938;2022-08-11T08:18:02;5.38;;;3.20;;
15451;SDS011;7827;53.594;9.938;2022-08-11T08:20:51;8.20;;;3.08;;
15451;SDS011;7827;53.594;9.938;2022-08-11T08:23:25;6.82;;;3.28;;
15451;SDS011;7827;53.594;9.938;2022-08-11T08:26:00;9.25;;;3.35;;
15451;SDS011;7827;53.594;9.938;2022-08-11T08:28:32;5.75;;;3.05;;
15451;SDS011;7827;53.594;9.938;2022-08-11T08:31:02;6.70;;;3.30;;
15451;SDS011;7827;53.594;9.938;2022-08-11T08:33:30;4.22;;;3.28;;
15451;SDS011;7827;53.594;9.938;2022-08-11T08:36:03;4.75;;;2.97;;
15451;SDS011;7827;53.594;9.938;2022-08-11T08:38:40;7.22;;;3.67;;
15451;SDS011;7827;53.594;9.938;2022-08-11T08:41:09;5.38;;;3.33;;
15451;SDS011;7827;53.594;9.938;2022-08-11T08:43:43;8.75;;;3.42;;
15451;SDS011;7827;53.594;9.938;2022-08-11T08:46:15;9.10;;;3.58;;
15451;SDS011;7827;53.594;9.938;2022-08-11T08:48:46;6.85;;;3.42;;
15451;SDS011;7827;53.594;9.938;2022-08-11T08:51:18;4.82;;;3.33;;
15451;SDS011;7827;53.594;9.938;2022-08-11T08:54:22;4.63;;;3.25;;
15451;SDS011;7827;53.594;9.938;2022-08-11T08:57:00;5.25;;;3.15;;
15451;SDS011;7827;53.594;9.938;2022-08-11T08:59:32;3.67;;;3.28;;
15451;SDS011;7827;53.594;9.938;2022-08-11T09:02:15;4.80;;;3.10;;
15451;SDS011;7827;53.594;9.938;2022-08-11T09:04:59;5.93;;;2.95;;
15451;SDS011;7827;53.594;9.938;2022-08-11T09:07:29;6.00;;;3.40;;
15451;SDS011;7827;53.594;9.938;2022-08-11T09:10:06;10.18;;;3.40;;
15451;SDS011;7827;53.594;9.938;2022-08-11T09:12:35;5.32;;;2.80;;
15451;SDS011;7827;53.594;9.938;2022-08-11T09:15:08;3.95;;;2.92;;
15451;SDS011;7827;53.594;9.938;2022-08-11T09:17:41;6.18;;;2.88;;
15451;SDS011;7827;53.594;9.938;2022-08-11T09:20:11;8.35;;;2.80;;
15451;SDS011;7827;53.594;9.938;2022-08-11T09:22:41;5.57;;;2.55;;
15451;SDS011;7827;53.594;9.938;2022-08-11T09:25:48;5.90;;;2.70;;
15451;SDS011;7827;53.594;9.938;2022-08-11T09:28:38;7.10;;;2.92;;
15451;SDS011;7827;53.594;9.938;2022-08-11T09:31:10;5.75;;;3.00;;
15451;SDS011;7827;53.594;9.938;2022-08-11T09:33:39;7.60;;;3.15;;
15451;SDS011;7827;53.594;9.938;2022-08-11T09:36:10;5.22;;;2.80;;
15451;SDS011;7827;53.594;9.938;2022-08-11T09:38:57;5.60;;;2.90;;
15451;SDS011;7827;53.594;9.938;2022-08-11T09:41:44;3.55;;;2.70;;
15451;SDS011;7827;53.594;9.938;2022-08-11T09:44:28;3.15;;;2.80;;
15451;SDS011;7827;53.594;9.938;2022-08-11T09:47:18;8.48;;;3.08;;
15451;SDS011;7827;53.594;9.938;2022-08-11T09:49:50;3.80;;;2.67;;
15451;SDS011;7827;53.594;9.938;2022-08-11T09:52:21;5.55;;;2.72;;
15451;SDS011;7827;53.594;9.938;2022-08-11T09:54:51;4.38;;;2.67;;
15451;SDS011;7827;53.594;9.938;2022-08-11T09:57:21;3.65;;;2.65;;
15451;SDS011;7827;53.594;9.938;2022-08-11T10:00:08;6.32;;;2.55;;
15451;SDS011;7827;53.594;9.938;2022-08-11T10:02:42;3.33;;;2.60;;
15451;SDS011;7827;53.594;9.938;2022-08-11T10:05:13;4.13;;;2.35;;
15451;SDS011;7827;53.594;9.938;2022-08-11T10:07:58;5.18;;;2.47;;
15451;SDS011;7827;53.594;9.938;2022-08-11T10:10:27;4.18;;;2.40;;
15451;SDS011;7827;53.594;9.938;2022-08-11T10:13:00;3.05;;;2.53;;
15451;SDS011;7827;53.594;9.938;2022-08-11T10:15:52;3.03;;;2.17;;
15451;SDS011;7827;53.594;9.938;2022-08-11T10:18:43;3.28;;;2.40;;
15451;SDS011;7827;53.594;9.938;2022-08-11T10:21:23;4.32;;;2.47;;
15451;SDS011;7827;53.594;9.938;2022-08-11T10:23:54;5.88;;;2.30;;
15451;SDS011;7827;53.594;9.938;2022-08-11T10:26:43;2.97;;;2.50;;
15451;SDS011;7827;53.594;9.938;2022-08-11T10:29:20;5.75;;;2.78;;
15451;SDS011;7827;53.594;9.938;2022-08-11T10:32:18;6.53;;;2.75;;
15451;SDS011;7827;53.594;9.938;2022-08-11T10:35:25;3.17;;;2.33;;
15451;SDS011;7827;53.594;9.938;2022-08-11T10:37:54;2.72;;;2.25;;
15451;SDS011;7827;53.594;9.938;2022-08-11T10:40:36;2.78;;;2.58;;
15451;SDS011;7827;53.594;9.938;2022-08-11T10:43:06;4.07;;;2.63;;
15451;SDS011;7827;53.594;9.938;2022-08-11T10:45:40;7.05;;;2.55;;
15451;SDS011;7827;53.594;9.938;2022-08-11T10:48:29;4.07;;;2.30;;
15451;SDS011;7827;53.594;9.938;2022-08-11T10:51:05;2.53;;;2.33;;
15451;SDS011;7827;53.594;9.938;2022-08-11T10:53:41;3.47;;;2.55;;
15451;SDS011;7827;53.594;9.938;2022-08-11T10:56:28;2.50;;;2.28;;
15451;SDS011;7827;53.594;9.938;2022-08-11T10:59:16;2.92;;;2.08;;
15451;SDS011;7827;53.594;9.938;2022-08-11T11:01:45;2.83;;;2.50;;
15451;SDS011;7827;53.594;9.938;2022-08-11T11:04:14;5.03;;;2.40;;
15451;SDS011;7827;53.594;9.938;2022-08-11T11:06:49;4.07;;;2.50;;
15451;SDS011;7827;53.594;9.938;2022-08-11T11:09:23;4.82;;;2.72;;
15451;SDS011;7827;53.594;9.938;2022-08-11T11:12:00;3.38;;;2.53;;
15451;SDS011;7827;53.594;9.938;2022-08-11T11:14:52;2.63;;;2.42;;
15451;SDS011;7827;53.594;9.938;2022-08-11T11:17:44;2.55;;;2.30;;
15451;SDS011;7827;53.594;9.938;2022-08-11T11:20:28;5.50;;;2.60;;
15451;SDS011;7827;53.594;9.938;2022-08-11T11:23:09;5.68;;;2.42;;
15451;SDS011;7827;53.594;9.938;2022-08-11T11:25:54;2.60;;;2.40;;
15451;SDS011;7827;53.594;9.938;2022-08-11T11:34:50;2.88;;;2.38;;
15451;SDS011;7827;53.594;9.938;2022-08-11T11:37:34;4.32;;;2.47;;
15451;SDS011;7827;53.594;9.938;2022-08-11T11:40:08;5.45;;;2.30;;
15451;SDS011;7827;53.594;9.938;2022-08-11T11:42:38;6.75;;;2.53;;
15451;SDS011;7827;53.594;9.938;2022-08-11T11:45:08;2.88;;;2.33;;
15451;SDS011;7827;53.594;9.938;2022-08-11T11:47:50;6.43;;;2.55;;
15451;SDS011;7827;53.594;9.938;2022-08-11T11:50:23;4.07;;;2.40;;
15451;SDS011;7827;53.594;9.938;2022-08-11T11:52:59;4.45;;;2.15;;
15451;SDS011;7827;53.594;9.938;2022-08-11T11:55:31;6.28;;;2.22;;
15451;SDS011;7827;53.594;9.938;2022-08-11T11:58:01;6.30;;;2.50;;
15451;SDS011;7827;53.594;9.938;2022-08-11T12:00:48;2.85;;;2.03;;
15451;SDS011;7827;53.594;9.938;2022-08-11T12:03:45;3.28;;;2.08;;
15451;SDS011;7827;53.594;9.938;2022-08-11T12:06:17;4.50;;;2.30;;
15451;SDS011;7827;53.594;9.938;2022-08-11T12:08:48;4.70;;;2.03;;
15451;SDS011;7827;53.594;9.938;2022-08-11T12:11:22;9.85;;;2.30;;
15451;SDS011;7827;53.594;9.938;2022-08-11T12:14:09;2.40;;;2.20;;
15451;SDS011;7827;53.594;9.938;2022-08-11T12:16:38;7.97;;;2.20;;
15451;SDS011;7827;53.594;9.938;2022-08-11T12:19:10;11.48;;;2.40;;
15451;SDS011;7827;53.594;9.938;2022-08-11T12:21:40;5.93;;;2.00;;
15451;SDS011;7827;53.594;9.938;2022-08-11T12:24:30;2.97;;;2.03;;
15451;SDS011;7827;53.594;9.938;2022-08-11T12:27:19;3.50;;;1.75;;
15451;SDS011;7827;53.594;9.938;2022-08-11T12:29:53;3.25;;;1.75;;
15451;SDS011;7827;53.594;9.938;2022-08-11T12:32:24;3.38;;;1.80;;
15451;SDS011;7827;53.594;9.938;2022-08-11T12:34:54;3.70;;;1.80;;
15451;SDS011;7827;53.594;9.938;2022-08-11T12:37:24;2.90;;;1.83;;
15451;SDS011;7827;53.594;9.938;2022-08-11T12:39:57;4.70;;;1.90;;
15451;SDS011;7827;53.594;9.938;2022-08-11T12:43:09;9.00;;;2.03;;
15451;SDS011;7827;53.594;9.938;2022-08-11T12:46:05;5.32;;;2.10;;
15451;SDS011;7827;53.594;9.938;2022-08-11T12:48:35;2.30;;;1.90;;
15451;SDS011;7827;53.594;9.938;2022-08-11T12:51:29;3.97;;;2.20;;
15451;SDS011;7827;53.594;9.938;2022-08-11T12:54:40;3.38;;;1.70;;
15451;SDS011;7827;53.594;9.938;2022-08-11T12:57:28;4.32;;;1.90;;
15451;SDS011;7827;53.594;9.938;2022-08-11T13:00:18;4.93;;;2.22;;
15451;SDS011;7827;53.594;9.938;2022-08-11T13:03:05;2.58;;;1.85;;
15451;SDS011;7827;53.594;9.938;2022-08-11T13:05:53;1.95;;;1.75;;
15451;SDS011;7827;53.594;9.938;2022-08-11T13:08:23;3.70;;;2.03;;
15451;SDS011;7827;53.594;9.938;2022-08-11T13:10:54;3.13;;;1.88;;
15451;SDS011;7827;53.594;9.938;2022-08-11T13:13:43;4.53;;;2.03;;
15451;SDS011;7827;53.594;9.938;2022-08-11T13:16:23;2.50;;;1.92;;
15451;SDS011;7827;53.594;9.938;2022-08-11T13:18:55;3.58;;;2.30;;
15451;SDS011;7827;53.594;9.938;2022-08-11T13:21:27;4.05;;;2.20;;
15451;SDS011;7827;53.594;9.938;2022-08-11T13:23:56;5.25;;;1.70;;
15451;SDS011;7827;53.594;9.938;2022-08-11T13:26:29;5.60;;;1.90;;
15451;SDS011;7827;53.594;9.938;2022-08-11T13:29:19;6.63;;;2.10;;
15451;SDS011;7827;53.594;9.938;2022-08-11T13:31:50;3.10;;;1.98;;
15451;SDS011;7827;53.594;9.938;2022-08-11T13:34:20;2.92;;;2.15;;
15451;SDS011;7827;53.594;9.938;2022-08-11T13:36:52;7.03;;;2.00;;
15451;SDS011;7827;53.594;9.938;2022-08-11T13:39:22;3.20;;;2.03;;
15451;SDS011;7827;53.594;9.938;2022-08-11T13:41:52;2.83;;;2.00;;
15451;SDS011;7827;53.594;9.938;2022-08-11T13:44:23;2.85;;;1.95;;
15451;SDS011;7827;53.594;9.938;2022-08-11T13:46:55;1.90;;;1.70;;
15451;SDS011;7827;53.594;9.938;2022-08-11T13:49:26;3.75;;;2.15;;
15451;SDS011;7827;53.594;9.938;2022-08-11T13:51:56;5.57;;;2.30;;
15451;SDS011;7827;53.594;9.938;2022-08-11T13:54:26;3.97;;;2.10;;
15451;SDS011;7827;53.594;9.938;2022-08-11T13:56:59;7.05;;;1.90;;
15451;SDS011;7827;53.594;9.938;2022-08-11T13:59:38;2.92;;;2.08;;
15451;SDS011;7827;53.594;9.938;2022-08-11T14:02:20;3.97;;;1.90;;
15451;SDS011;7827;53.594;9.938;2022-08-11T14:04:56;4.45;;;2.15;;
15451;SDS011;7827;53.594;9.938;2022-08-11T14:07:31;7.05;;;1.73;;
15451;SDS011;7827;53.594;9.938;2022-08-11T14:10:02;2.10;;;1.77;;
15451;SDS011;7827;53.594;9.938;2022-08-11T14:12:32;2.70;;;2.22;;
15451;SDS011;7827;53.594;9.938;2022-08-11T14:15:20;3.28;;;2.05;;
15451;SDS011;7827;53.594;9.938;2022-08-11T14:17:54;4.20;;;1.90;;
15451;SDS011;7827;53.594;9.938;2022-08-11T14:20:27;5.47;;;2.03;;
15451;SDS011;7827;53.594;9.938;2022-08-11T14:23:18;4.28;;;2.10;;
15451;SDS011;7827;53.594;9.938;2022-08-11T14:25:51;6.28;;;2.40;;
15451;SDS011;7827;53.594;9.938;2022-08-11T14:28:43;4.55;;;1.90;;
15451;SDS011;7827;53.594;9.938;2022-08-11T14:31:12;3.45;;;2.33;;
15451;SDS011;7827;53.594;9.938;2022-08-11T14:33:43;2.85;;;1.98;;
15451;SDS011;7827;53.594;9.938;2022-08-11T14:36:33;3.97;;;2.10;;
15451;SDS011;7827;53.594;9.938;2022-08-11T14:39:04;3.80;;;1.80;;
15451;SDS011;7827;53.594;9.938;2022-08-11T14:41:38;2.28;;;2.03;;
15451;SDS011;7827;53.594;9.938;2022-08-11T14:44:38;3.38;;;1.90;;
15451;SDS011;7827;53.594;9.938;2022-08-11T14:47:26;6.82;;;2.28;;
15451;SDS011;7827;53.594;9.938;2022-08-11T14:49:57;3.03;;;1.98;;
15451;SDS011;7827;53.594;9.938;2022-08-11T14:52:38;4.18;;;1.90;;
15451;SDS011;7827;53.594;9.938;2022-08-11T14:55:10;3.53;;;1.92;;
15451;SDS011;7827;53.594;9.938;2022-08-11T14:57:56;2.70;;;1.77;;
15451;SDS011;7827;53.594;9.938;2022-08-11T15:00:25;2.40;;;2.15;;
15451;SDS011;7827;53.594;9.938;2022-08-11T15:02:54;7.72;;;1.80;;
15451;SDS011;7827;53.594;9.938;2022-08-11T15:05:40;3.28;;;1.80;;
15451;SDS011;7827;53.594;9.938;2022-08-11T15:08:24;2.45;;;1.65;;
15451;SDS011;7827;53.594;9.938;2022-08-11T15:11:13;5.32;;;2.17;;
15451;SDS011;7827;53.594;9.938;2022-08-11T15:14:00;3.10;;;1.90;;
15451;SDS011;7827;53.594;9.938;2022-08-11T15:16:31;3.38;;;1.88;;
15451;SDS011;7827;53.594;9.938;2022-08-11T15:19:18;2.80;;;1.88;;
15451;SDS011;7827;53.594;9.938;2022-08-11T15:21:48;3.83;;;1.90;;
15451;SDS011;7827;53.594;9.938;2022-08-11T15:24:34;5.38;;;1.70;;
15451;SDS011;7827;53.594;9.938;2022-08-11T15:27:04;2.65;;;1.80;;
15451;SDS011;7827;53.594;9.938;2022-08-11T15:29:55;7.50;;;2.20;;
15451;SDS011;7827;53.594;9.938;2022-08-11T15:32:59;5.85;;;2.17;;
15451;SDS011;7827;53.594;9.938;2022-08-11T15:35:49;5.78;;;2.20;;
15451;SDS011;7827;53.594;9.938;2022-08-11T15:38:38;5.85;;;2.10;;
15451;SDS011;7827;53.594;9.938;2022-08-11T15:41:08;3.45;;;2.10;;
15451;SDS011;7827;53.594;9.938;2022-08-11T15:44:01;2.83;;;1.92;;
15451;SDS011;7827;53.594;9.938;2022-08-11T15:47:13;4.65;;;2.30;;
15451;SDS011;7827;53.594;9.938;2022-08-11T15:49:44;5.85;;;2.28;;
15451;SDS011;7827;53.594;9.938;2022-08-11T15:52:39;5.75;;;2.47;;
15451;SDS011;7827;53.594;9.938;2022-08-11T15:55:13;6.45;;;2.17;;
15451;SDS011;7827;53.594;9.938;2022-08-11T15:57:43;4.75;;;2.30;;
15451;SDS011;7827;53.594;9.938;2022-08-11T16:00:42;6.20;;;2.50;;
15451;SDS011;7827;53.594;9.938;2022-08-11T16:03:38;4.10;;;2.10;;
15451;SDS011;7827;53.594;9.938;2022-08-11T16:06:34;5.53;;;2.30;;
15451;SDS011;7827;53.594;9.938;2022-08-11T16:09:13;3.25;;;2.20;;
15451;SDS011;7827;53.594;9.938;2022-08-11T16:11:46;3.58;;;2.22;;
15451;SDS011;7827;53.594;9.938;2022-08-11T16:14:15;6.95;;;2.20;;
15451;SDS011;7827;53.594;9.938;2022-08-11T16:16:59;4.70;;;2.33;;
15451;SDS011;7827;53.594;9.938;2022-08-11T16:19:28;3.28;;;1.90;;
15451;SDS011;7827;53.594;9.938;2022-08-11T16:22:02;3.25;;;2.10;;
15451;SDS011;7827;53.594;9.938;2022-08-11T16:24:34;8.55;;;2.30;;
15451;SDS011;7827;53.594;9.938;2022-08-11T16:27:26;4.07;;;2.25;;
15451;SDS011;7827;53.594;9.938;2022-08-11T16:29:59;6.22;;;2.25;;
15451;SDS011;7827;53.594;9.938;2022-08-11T16:32:30;4.75;;;2.40;;
15451;SDS011;7827;53.594;9.938;2022-08-11T16:35:00;5.07;;;2.10;;
15451;SDS011;7827;53.594;9.938;2022-08-11T16:37:47;5.00;;;1.80;;
15451;SDS011;7827;53.594;9.938;2022-08-11T16:40:36;4.53;;;2.10;;
15451;SDS011;7827;53.594;9.938;2022-08-11T16:43:07;6.57;;;2.17;;
15451;SDS011;7827;53.594;9.938;2022-08-11T16:46:12;3.97;;;2.55;;
15451;SDS011;7827;53.594;9.938;2022-08-11T16:49:01;5.78;;;2.05;;
15451;SDS011;7827;53.594;9.938;2022-08-11T16:51:32;11.35;;;2.97;;
15451;SDS011;7827;53.594;9.938;2022-08-11T16:54:01;6.80;;;3.70;;
15451;SDS011;7827;53.594;9.938;2022-08-11T16:56:33;4.97;;;2.40;;
15451;SDS011;7827;53.594;9.938;2022-08-11T16:59:06;4.28;;;2.25;;
15451;SDS011;7827;53.594;9.938;2022-08-11T17:01:45;3.28;;;2.17;;
15451;SDS011;7827;53.594;9.938;2022-08-11T17:04:34;5.82;;;2.40;;
15451;SDS011;7827;53.594;9.938;2022-08-11T17:07:23;8.18;;;2.63;;
15451;SDS011;7827;53.594;9.938;2022-08-11T17:10:15;7.05;;;2.80;;
15451;SDS011;7827;53.594;9.938;2022-08-11T17:13:21;7.55;;;2.40;;
15451;SDS011;7827;53.594;9.938;2022-08-11T17:15:56;5.45;;;2.22;;
15451;SDS011;7827;53.594;9.938;2022-08-11T17:18:35;5.15;;;2.08;;
15451;SDS011;7827;53.594;9.938;2022-08-11T17:21:17;4.15;;;1.92;;